Time;durP1;ratioP1;P1;durP2;ratioP2;P2;SDS_P1;SDS_P2;PMS_P1;PMS_P2;Temp;Humidity;BMP_temperature;BMP_pressure;BME280_temperature;BME280_humidity;BME280_pressure;Samples;Min_cycle;Max_cycle;Signal;HPM_P1;HPM_P2
2021/12/05 00:23:17;;;;;;;29.63;18.08;;;;;;;5.70;68.17;94502.16;5041046;28;20254;-68
2021/12/05 00:25:49;;;;;;;30.15;17.33;;;;;;;5.59;68.25;94498.59;5042234;28;20213;-68
2021/12/05 00:47:35;;;;;;;33.05;19.15;;;;;;;5.57;68.43;94463.47;5037451;28;20264;-67
2021/12/05 00:50:20;;;;;;;36.65;21.65;;;;;;;5.70;68.66;94494.38;5036999;28;20211;-67
2021/12/05 01:06:56;;;;;;;33.65;18.50;;;;;;;4.94;71.05;94459.25;5039460;28;20196;-68
2021/12/05 01:09:34;;;;;;;32.30;18.00;;;;;;;5.06;70.35;94452.22;5035431;28;20197;-67
2021/12/05 01:17:33;;;;;;;27.23;16.52;;;;;;;4.91;70.50;94464.88;5047821;28;20212;-67
2021/12/05 01:20:04;;;;;;;32.17;17.17;;;;;;;4.88;70.84;94460.16;5034950;28;20608;-67
2021/12/05 01:22:34;;;;;;;30.17;17.15;;;;;;;4.93;70.95;94462.06;5037845;28;20211;-69
2021/12/05 01:28:52;;;;;;;31.05;17.48;;;;;;;5.06;70.15;94444.41;5038839;28;20231;-68
2021/12/05 01:33:24;;;;;;;31.27;17.85;;;;;;;5.15;70.13;94414.44;5047495;28;20232;-68
2021/12/05 01:36:07;;;;;;;29.38;16.83;;;;;;;5.32;69.13;94437.88;5048584;28;20204;-67
2021/12/05 01:49:13;;;;;;;27.30;16.55;;;;;;;5.10;68.80;94435.16;5034142;28;20930;-67
2021/12/05 02:41:20;;;;;;;55.70;32.50;;;;;;;5.09;73.68;94451.72;5039957;28;20212;-66
2021/12/05 02:43:58;;;;;;;55.92;32.88;;;;;;;5.02;74.29;94456.28;5040396;28;20272;-68
2021/12/05 02:46:26;;;;;;;53.42;31.30;;;;;;;5.27;73.68;94448.19;5039464;28;20200;-68
2021/12/05 02:49:00;;;;;;;55.05;31.40;;;;;;;5.06;74.00;94447.00;5038748;28;20232;-68
2021/12/05 02:51:29;;;;;;;57.72;32.25;;;;;;;5.31;73.34;94443.28;5038962;28;20215;-68
2021/12/05 02:56:38;;;;;;;55.45;31.63;;;;;;;5.51;72.95;94443.66;5050665;28;20200;-68
2021/12/05 02:59:21;;;;;;;53.67;30.08;;;;;;;5.43;72.64;94431.03;5051458;28;20208;-67
2021/12/05 03:02:16;;;;;;;50.72;29.58;;;;;;;5.64;72.48;94435.53;5038404;28;20200;-67
2021/12/05 03:04:48;;;;;;;52.42;29.02;;;;;;;5.42;72.88;94439.84;5039151;28;20965;-68
2021/12/05 03:07:19;;;;;;;57.88;30.30;;;;;;;5.59;72.29;94443.25;5049818;28;20691;-68
2021/12/05 03:09:46;;;;;;;51.45;29.63;;;;;;;5.62;72.09;94440.19;5050347;28;20210;-68
2021/12/05 03:12:18;;;;;;;51.28;29.67;;;;;;;5.18;74.51;94434.75;5050096;28;20196;-66
2021/12/05 03:14:47;;;;;;;48.63;28.88;;;;;;;5.51;73.00;94434.00;5038401;28;20208;-67
2021/12/05 03:17:14;;;;;;;51.22;29.10;;;;;;;5.41;72.81;94436.47;5038302;28;20743;-67
2021/12/05 03:19:41;;;;;;;53.25;29.42;;;;;;;5.30;73.24;94441.69;5038448;28;20977;-67
2021/12/05 03:22:09;;;;;;;52.83;29.42;;;;;;;5.25;73.29;94434.63;5039580;28;20303;-66
2021/12/05 03:24:36;;;;;;;51.38;28.67;;;;;;;5.29;73.53;94434.94;5040932;28;20743;-68
2021/12/05 03:27:03;;;;;;;56.90;29.23;;;;;;;5.38;73.13;94442.13;5049811;28;20250;-67
2021/12/05 03:29:31;;;;;;;50.80;29.00;;;;;;;5.37;73.21;94442.34;5050044;28;20212;-68
2021/12/05 03:31:59;;;;;;;50.33;28.00;;;;;;;5.29;73.94;94434.94;5049765;28;20267;-68
2021/12/05 03:34:27;;;;;;;52.15;28.95;;;;;;;4.97;74.34;94435.41;5049888;28;20208;-68
2021/12/05 03:36:58;;;;;;;50.00;29.30;;;;;;;4.97;75.17;94438.03;5040849;28;20235;-68
2021/12/05 03:39:30;;;;;;;50.80;28.83;;;;;;;5.26;73.88;94440.59;5039138;28;20210;-67
2021/12/05 03:41:58;;;;;;;51.45;28.23;;;;;;;5.13;73.44;94426.88;5039909;28;20196;-67
2021/12/05 03:44:29;;;;;;;52.08;28.52;;;;;;;5.29;73.58;94430.53;5038365;28;20254;-69
2021/12/05 03:46:57;;;;;;;53.80;29.40;;;;;;;5.42;72.74;94416.47;5041148;28;20196;-68
2021/12/05 03:49:28;;;;;;;47.65;28.60;;;;;;;5.36;72.88;94404.41;5038070;28;20224;-68
2021/12/05 03:52:03;;;;;;;49.20;28.17;;;;;;;5.41;73.04;94427.88;5037304;28;20524;-67
2021/12/05 03:54:30;;;;;;;45.50;27.48;;;;;;;5.47;72.27;94409.53;5038506;28;20755;-68
2021/12/05 03:56:59;;;;;;;49.50;27.90;;;;;;;5.66;72.13;94429.06;5048975;28;20220;-69
2021/12/05 03:59:30;;;;;;;51.40;28.27;;;;;;;5.49;72.57;94430.09;5050776;28;20287;-68
2021/12/05 04:02:00;;;;;;;53.67;28.90;;;;;;;5.54;72.84;94433.56;5032863;28;20196;-67
2021/12/05 04:04:29;;;;;;;50.05;27.73;;;;;;;5.42;72.86;94426.88;5049366;28;20209;-68
2021/12/05 04:06:56;;;;;;;50.97;28.90;;;;;;;5.49;72.97;94425.66;5032715;28;20220;-67
2021/12/05 04:09:25;;;;;;;52.53;28.45;;;;;;;5.16;74.13;94429.00;5050509;28;20220;-68
2021/12/05 04:11:59;;;;;;;52.50;29.08;;;;;;;5.22;74.35;94439.50;5049301;28;20362;-68
2021/12/05 04:14:37;;;;;;;54.55;30.58;;;;;;;5.51;73.16;94428.81;5046412;28;20541;-67
2021/12/05 04:17:07;;;;;;;53.40;32.25;;;;;;;5.31;73.91;94438.09;5043895;28;20203;-68
2021/12/05 04:19:35;;;;;;;50.47;29.77;;;;;;;5.15;74.91;94444.81;5036967;28;21037;-67
2021/12/05 04:22:05;;;;;;;49.42;27.98;;;;;;;5.44;73.80;94443.00;5039157;28;20263;-70
2021/12/05 04:24:34;;;;;;;50.40;27.98;;;;;;;5.46;73.80;94433.13;5040498;28;20212;-68
2021/12/05 04:27:01;;;;;;;51.03;29.08;;;;;;;5.37;74.29;94431.94;5048783;28;20627;-68
2021/12/05 04:29:28;;;;;;;52.42;28.60;;;;;;;5.72;72.60;94435.13;5049018;28;20224;-68
2021/12/05 04:31:55;;;;;;;49.63;28.10;;;;;;;5.65;72.25;94440.50;5048705;28;20262;-67
2021/12/05 04:34:23;;;;;;;45.55;27.83;;;;;;;5.85;72.19;94461.66;5048831;28;20589;-68
2021/12/05 04:36:56;;;;;;;48.38;28.55;;;;;;;6.12;71.52;94453.97;5049543;28;20207;-68
2021/12/05 04:39:27;;;;;;;51.85;28.33;;;;;;;5.91;71.94;94452.13;5049760;28;20246;-67
2021/12/05 04:41:55;;;;;;;48.90;28.63;;;;;;;5.92;71.99;94445.88;5048354;28;20196;-69
2021/12/05 04:44:24;;;;;;;46.05;27.45;;;;;;;5.82;71.96;94449.06;5043320;28;20289;-68
2021/12/05 04:46:55;;;;;;;47.05;27.23;;;;;;;5.95;71.45;94455.78;5047785;28;20204;-69
2021/12/05 04:49:23;;;;;;;47.85;28.08;;;;;;;5.93;71.19;94453.44;5017594;28;20264;-68
2021/12/05 04:51:52;;;;;;;48.50;26.90;;;;;;;5.98;71.46;94452.75;5016856;28;20221;-69
2021/12/05 04:54:20;;;;;;;46.05;27.08;;;;;;;5.80;72.13;94460.75;5029673;28;20216;-68
2021/12/05 04:56:48;;;;;;;48.30;28.08;;;;;;;5.36;74.37;94470.16;5030036;28;20201;-67
2021/12/05 04:59:24;;;;;;;43.05;25.70;;;;;;;5.37;74.14;94455.34;5028592;28;20242;-68
2021/12/05 05:01:57;;;;;;;42.50;25.10;;;;;;;5.88;73.23;94470.78;5015612;28;20233;-68
2021/12/05 05:04:28;;;;;;;44.72;24.73;;;;;;;6.03;72.38;94474.41;5022488;28;20244;-67
2021/12/05 05:07:01;;;;;;;42.95;25.70;;;;;;;5.97;72.55;94484.97;5029504;28;20304;-68
2021/12/05 05:09:29;;;;;;;40.97;25.95;;;;;;;5.79;72.43;94482.56;5029440;28;20220;-68
2021/12/05 05:11:56;;;;;;;41.83;24.63;;;;;;;5.85;73.23;94485.06;5029218;28;20193;-68
2021/12/05 05:14:23;;;;;;;42.25;25.10;;;;;;;5.73;73.27;94493.91;5025125;28;20199;-68
2021/12/05 05:16:54;;;;;;;46.35;26.48;;;;;;;5.72;73.27;94487.13;5030037;28;20209;-67
2021/12/05 05:19:27;;;;;;;40.72;25.55;;;;;;;5.88;72.77;94494.97;5018161;28;20212;-67
2021/12/05 05:22:07;;;;;;;44.83;25.90;;;;;;;6.00;72.53;94495.66;5017887;28;20989;-70
2021/12/05 05:50:39;;;;;;;44.58;26.58;;;;;;;5.69;74.26;94498.78;5041707;28;20200;-70
2021/12/05 05:53:06;;;;;;;44.92;26.67;;;;;;;5.54;74.87;94479.53;5041140;28;20200;-67
2021/12/05 05:55:34;;;;;;;48.22;27.73;;;;;;;5.72;73.61;94487.13;5043304;28;20669;-68
2021/12/05 05:58:05;;;;;;;49.22;28.20;;;;;;;5.67;74.63;94474.06;5052443;28;20200;-67
2021/12/05 06:00:40;;;;;;;62.22;34.28;;;;;;;5.57;74.47;94448.69;5048416;28;20197;-68
2021/12/05 06:03:24;;;;;;;55.40;33.22;;;;;;;5.40;74.77;94467.88;5039972;28;20303;-69
2021/12/05 06:05:58;;;;;;;62.95;34.55;;;;;;;5.53;74.93;94468.34;5043995;28;20223;-69
2021/12/05 06:08:27;;;;;;;60.17;32.75;;;;;;;5.62;73.96;94479.19;5043366;28;20247;-67
2021/12/05 06:10:58;;;;;;;58.72;31.58;;;;;;;5.72;73.25;94487.13;5047977;28;20213;-68
2021/12/05 06:13:27;;;;;;;53.88;30.80;;;;;;;5.88;73.29;94492.38;5040930;28;20197;-68
2021/12/05 06:15:54;;;;;;;60.03;31.00;;;;;;;5.73;75.44;94494.69;5043860;28;20193;-68
2021/12/05 06:18:23;;;;;;;56.50;31.90;;;;;;;5.56;77.31;94503.50;5043388;28;20287;-68
2021/12/05 06:20:51;;;;;;;53.78;31.02;;;;;;;5.84;75.34;94480.84;5052631;28;20199;-68
2021/12/05 06:23:21;;;;;;;56.47;30.88;;;;;;;5.55;74.57;94481.09;5052270;28;20193;-69
2021/12/05 06:25:50;;;;;;;49.05;29.42;;;;;;;5.64;75.38;94497.91;5052750;28;20311;-68
2021/12/05 06:28:27;;;;;;;51.95;29.00;;;;;;;5.88;74.19;94512.38;5051426;28;20204;-67
2021/12/05 06:39:19;;;;;;;53.25;30.35;;;;;;;5.63;74.14;94530.13;5049191;28;20211;-68
2021/12/05 06:47:28;;;;;;;51.38;29.67;;;;;;;5.84;75.28;94547.66;5046772;28;20327;-68
2021/12/05 06:49:56;;;;;;;55.92;30.27;;;;;;;5.88;74.02;94522.78;5038277;28;20232;-68
2021/12/05 06:52:40;;;;;;;49.67;27.85;;;;;;;6.07;73.42;94556.16;5040612;28;20953;-69
2021/12/05 06:55:09;;;;;;;48.85;28.05;;;;;;;5.96;73.13;94561.41;5040387;28;21028;-69
2021/12/05 06:57:36;;;;;;;41.45;23.20;;;;;;;5.84;73.43;94558.06;5040073;28;20193;-67
2021/12/05 07:00:07;;;;;;;43.38;24.70;;;;;;;5.84;73.22;94565.84;5049766;28;20580;-67
2021/12/05 07:02:34;;;;;;;46.20;27.00;;;;;;;5.82;73.79;94560.09;5050669;28;20266;-70
2021/12/05 07:05:20;;;;;;;49.15;27.70;;;;;;;5.84;73.88;94571.06;5051648;28;20173;-67
2021/12/05 07:07:48;;;;;;;55.10;30.85;;;;;;;5.85;73.32;94570.06;5046495;28;20200;-66
2021/12/05 07:10:17;;;;;;;46.25;26.17;;;;;;;6.02;73.60;94557.88;5051128;28;20224;-67
2021/12/05 07:15:50;;;;;;;47.53;26.45;;;;;;;6.19;74.29;94563.84;5030267;28;20228;-67
2021/12/05 07:26:14;;;;;;;39.22;22.50;;;;;;;6.33;73.99;94549.53;5047593;28;20435;-66
2021/12/05 07:42:30;;;;;;;36.17;21.38;;;;;;;6.82;71.03;94545.28;5047230;28;20307;-68
2021/12/05 07:45:01;;;;;;;32.78;20.80;;;;;;;6.62;71.93;94543.19;5047491;28;20196;-63
2021/12/05 07:47:31;;;;;;;350.08;254.48;;;;;;;6.97;71.07;94537.69;5047585;28;20238;-65
2021/12/05 07:50:06;;;;;;;148.03;104.67;;;;;;;7.13;71.23;94535.00;5049063;28;20209;-66
2021/12/05 07:52:34;;;;;;;46.73;28.37;;;;;;;7.44;69.97;94537.97;5046299;28;20438;-66
2021/12/05 07:55:26;;;;;;;36.17;22.43;;;;;;;7.36;70.06;94535.78;5048058;28;20447;-66
2021/12/05 08:00:53;;;;;;;43.55;26.17;;;;;;;7.54;70.72;94538.84;5046937;28;20447;-66
2021/12/05 08:15:09;;;;;;;40.63;24.98;;;;;;;7.64;69.19;94538.19;5048475;28;20447;-66
2021/12/05 08:17:19;;;;;;;41.13;24.33;;;;;;;8.33;68.93;94539.88;5046283;28;20201;-66
2021/12/05 08:19:47;;;;;;;40.33;23.47;;;;;;;8.48;66.96;94503.44;5048145;28;21049;-65
2021/12/05 08:22:15;;;;;;;37.10;23.13;;;;;;;8.88;66.43;94524.56;5048212;28;21106;-66
2021/12/05 08:24:46;;;;;;;36.23;21.93;;;;;;;8.40;66.74;94543.06;5048667;28;20457;-65
2021/12/05 08:27:16;;;;;;;33.80;21.63;;;;;;;8.73;65.89;94539.34;5048559;28;20973;-66
2021/12/05 08:29:48;;;;;;;30.67;21.13;;;;;;;8.87;65.55;94533.44;5032343;28;20489;-65
2021/12/05 08:32:33;;;;;;;33.13;21.50;;;;;;;8.75;65.49;94532.84;5049705;28;20451;-67
2021/12/05 10:10:14;;;;;;;22.00;14.97;;;;;;;12.22;55.37;94385.63;5048365;28;20586;-64
2021/12/05 10:37:48;;;;;;;20.43;12.63;;;;;;;11.10;54.90;94379.59;5052184;28;20443;-64
2021/12/05 10:40:40;;;;;;;17.83;12.20;;;;;;;11.55;54.65;94359.41;5051547;28;20442;-66
2021/12/05 10:43:28;;;;;;;17.70;12.10;;;;;;;11.33;53.98;94359.03;5050313;28;20457;-64
2021/12/05 10:46:08;;;;;;;17.70;11.93;;;;;;;11.23;55.16;94349.38;5067314;28;21055;-60
2021/12/05 10:48:42;;;;;;;19.63;11.93;;;;;;;11.98;55.07;94353.28;5071430;28;20488;-62
2021/12/05 10:51:18;;;;;;;19.07;13.13;;;;;;;11.50;55.80;94348.91;5055418;28;20995;-62
2021/12/05 10:54:19;;;;;;;20.57;13.97;;;;;;;11.17;56.82;94351.25;5049380;28;20530;-74
2021/12/05 10:56:51;;;;;;;19.83;12.97;;;;;;;11.76;54.62;94331.94;5046699;28;20450;-55
2021/12/05 10:59:37;;;;;;;18.17;13.47;;;;;;;11.57;56.11;94336.28;5035552;28;20452;-54
2021/12/05 11:02:13;;;;;;;24.50;15.13;;;;;;;11.35;55.61;94301.81;5047381;28;20513;-62
2021/12/05 11:04:47;;;;;;;23.33;16.90;;;;;;;11.63;55.61;94322.06;5051342;28;20486;-71
2021/12/05 11:07:18;;;;;;;26.23;16.87;;;;;;;11.76;54.49;94316.19;5050457;28;20443;-69
2021/12/05 11:09:52;;;;;;;25.03;16.87;;;;;;;11.13;56.57;94315.34;5039928;28;20490;-69
2021/12/05 11:12:35;;;;;;;16.10;10.60;;;;;;;11.58;54.79;94311.59;5037594;28;20545;-75
2021/12/05 11:15:08;;;;;;;17.10;10.30;;;;;;;11.40;54.77;94323.56;5045021;28;20505;-76
2021/12/05 11:17:39;;;;;;;16.47;10.53;;;;;;;11.32;55.33;94290.03;5050357;28;20451;-72
2021/12/05 11:20:09;;;;;;;15.73;10.83;;;;;;;11.38;56.19;94317.00;5045271;28;20462;-74
2021/12/05 11:22:39;;;;;;;13.63;9.00;;;;;;;11.59;54.66;94302.66;5047152;28;20447;-73
2021/12/05 11:25:09;;;;;;;15.13;10.07;;;;;;;11.48;54.60;94286.22;5050914;28;20443;-65
2021/12/05 11:28:11;;;;;;;16.50;10.60;;;;;;;11.83;54.25;94283.31;5048479;28;20494;-68
2021/12/05 11:30:46;;;;;;;13.97;9.77;;;;;;;11.56;55.04;94279.59;5050288;28;20501;-67
2021/12/05 11:33:19;;;;;;;19.07;11.90;;;;;;;11.72;54.67;94286.31;5048459;28;20469;-68
2021/12/05 11:35:58;;;;;;;18.87;13.50;;;;;;;12.37;53.66;94272.50;5048864;28;20613;-68
2021/12/05 11:38:27;;;;;;;17.07;13.20;;;;;;;13.41;50.54;94265.31;5048870;28;20466;-67
2021/12/05 11:41:06;;;;;;;14.27;10.00;;;;;;;13.38;50.87;94260.59;5046828;28;20454;-67
2021/12/05 11:43:33;;;;;;;15.07;9.87;;;;;;;14.01;48.49;94253.72;5047272;28;20446;-68
2021/12/05 11:46:02;;;;;;;12.63;9.63;;;;;;;14.08;48.29;94259.38;5048393;28;20439;-65
2021/12/05 11:48:53;;;;;;;14.53;9.53;;;;;;;14.56;46.86;94244.75;5047165;28;20477;-66
2021/12/05 11:51:27;;;;;;;12.83;8.47;;;;;;;16.51;44.68;94230.50;5048474;28;20930;-68
2021/12/05 11:53:54;;;;;;;58.57;43.97;;;;;;;16.92;41.82;94225.59;5048030;28;20536;-72
2021/12/05 11:56:38;;;;;;;14.57;10.87;;;;;;;17.51;40.63;94220.59;5048866;28;20474;-75
2021/12/05 11:59:25;;;;;;;18.20;14.37;;;;;;;18.01;40.62;94219.69;5046150;28;20528;-72
2021/12/05 12:02:14;;;;;;;16.30;11.47;;;;;;;18.68;37.61;94214.41;5049330;28;20508;-69
2021/12/05 12:05:07;;;;;;;16.63;11.93;;;;;;;18.81;37.16;94216.03;5047682;28;20457;-70
2021/12/05 12:07:43;;;;;;;14.93;10.90;;;;;;;19.70;38.15;94209.38;5048763;28;20448;-76
2021/12/05 12:10:45;;;;;;;14.43;10.30;;;;;;;20.55;35.51;94213.72;5047824;28;20240;-72
2021/12/05 12:13:18;;;;;;;8.70;7.50;;;;;;;20.65;33.07;94199.19;5048347;28;20258;-72
2021/12/05 12:15:47;;;;;;;10.93;8.40;;;;;;;19.96;36.01;94181.41;5048799;28;20193;-72
2021/12/05 12:18:26;;;;;;;11.43;8.87;;;;;;;19.76;34.72;94157.59;5047010;28;20694;-73
2021/12/05 12:20:54;;;;;;;12.03;9.17;;;;;;;19.08;35.36;94181.03;5049045;28;20231;-75
2021/12/05 12:23:22;;;;;;;12.20;10.07;;;;;;;20.17;35.49;94194.66;5050115;28;20231;-75
2021/12/05 12:25:54;;;;;;;75.50;64.03;;;;;;;19.61;37.00;94195.41;5049995;28;20685;-72
2021/12/05 12:28:22;;;;;;;85.70;76.43;;;;;;;20.72;34.13;94170.91;5049567;28;20628;-73
2021/12/05 12:30:59;;;;;;;12.17;10.83;;;;;;;21.04;35.18;94187.81;5048586;28;20212;-73
2021/12/05 12:33:36;;;;;;;13.70;9.37;;;;;;;22.32;33.28;94172.16;5047560;28;20204;-72
2021/12/05 12:36:04;;;;;;;12.23;9.00;;;;;;;22.05;32.46;94165.81;5047417;28;20215;-73
2021/12/05 12:38:31;;;;;;;11.90;8.83;;;;;;;21.84;31.89;94177.84;5048028;28;20283;-71
2021/12/05 12:41:10;;;;;;;11.80;9.30;;;;;;;21.66;32.54;94174.69;5049048;28;20204;-73
2021/12/05 12:43:52;;;;;;;10.47;8.70;;;;;;;20.64;33.38;94169.13;5046039;28;20232;-72
2021/12/05 12:46:36;;;;;;;12.53;9.23;;;;;;;20.89;34.25;94175.94;5046568;28;20302;-73
2021/12/05 12:49:16;;;;;;;11.87;9.23;;;;;;;21.23;33.34;94180.00;5048191;28;20237;-73
2021/12/05 12:51:44;;;;;;;11.77;9.03;;;;;;;22.15;32.43;94167.97;5047194;28;20252;-73
2021/12/05 12:54:34;;;;;;;10.23;8.83;;;;;;;20.87;33.17;94167.56;5048723;28;20208;-72
2021/12/05 12:57:08;;;;;;;11.33;9.03;;;;;;;21.68;32.55;94169.00;5048244;28;20246;-69
2021/12/05 12:59:40;;;;;;;10.07;8.40;;;;;;;21.59;33.00;94155.06;5048646;28;20199;-72
2021/12/05 13:02:49;;;;;;;10.93;9.10;;;;;;;21.48;32.05;94144.13;5047962;28;20200;-76
2021/12/05 13:05:34;;;;;;;10.67;9.13;;;;;;;21.47;32.62;94168.47;5047140;28;20216;-75
2021/12/05 13:11:11;;;;;;;12.43;8.93;;;;;;;20.60;33.33;94173.56;5049018;28;20639;-72
2021/12/05 13:13:42;;;;;;;11.60;8.73;;;;;;;19.78;34.38;94134.84;5049084;28;20662;-73
2021/12/05 13:16:21;;;;;;;13.53;9.27;;;;;;;19.72;35.31;94162.00;5048934;28;20638;-70
2021/12/05 13:19:05;;;;;;;12.40;9.57;;;;;;;17.49;38.74;94148.63;5048880;28;20277;-72
2021/12/05 13:21:40;;;;;;;12.23;10.93;;;;;;;16.09;42.53;94151.84;5049993;28;20261;-73
2021/12/05 13:24:31;;;;;;;13.87;10.37;;;;;;;15.88;42.72;94156.09;5045261;28;20195;-74
2021/12/05 13:27:21;;;;;;;11.53;10.33;;;;;;;14.30;45.37;94146.22;5049157;28;20204;-74
2021/12/05 13:30:09;;;;;;;14.10;11.23;;;;;;;14.04;46.61;94163.56;5041195;28;20515;-71
2021/12/05 13:32:37;;;;;;;13.63;11.97;;;;;;;14.07;46.99;94178.78;5048809;28;20493;-70
2021/12/05 13:35:12;;;;;;;12.97;10.57;;;;;;;13.44;48.53;94148.94;5049304;28;20500;-72
2021/12/05 13:37:48;;;;;;;14.77;10.77;;;;;;;13.45;48.58;94176.81;5046389;28;20482;-73
2021/12/05 13:40:26;;;;;;;12.73;10.23;;;;;;;12.88;50.13;94168.22;5048533;28;20470;-70
2021/12/05 13:43:03;;;;;;;14.10;11.17;;;;;;;13.06;50.12;94183.22;5047959;28;20450;-71
2021/12/05 13:45:43;;;;;;;12.70;10.03;;;;;;;12.54;50.40;94167.69;5048459;28;20532;-67
2021/12/05 13:48:17;;;;;;;13.60;10.10;;;;;;;12.69;50.33;94201.66;5047915;28;21228;-67
2021/12/05 13:51:05;;;;;;;13.83;10.67;;;;;;;12.85;50.53;94187.22;5046682;28;20540;-67
2021/12/05 13:54:01;;;;;;;11.93;10.40;;;;;;;13.34;49.10;94193.84;5043411;28;20466;-69
2021/12/05 13:56:31;;;;;;;15.37;10.50;;;;;;;14.44;45.86;94175.94;5048702;28;20445;-66
2021/12/05 13:59:05;;;;;;;12.00;9.63;;;;;;;15.42;43.94;94174.25;5051288;28;20949;-67
2021/12/05 14:01:35;;;;;;;13.30;10.43;;;;;;;15.65;43.40;94165.97;5053275;28;20439;-67
2021/12/05 14:04:10;;;;;;;16.30;10.90;;;;;;;15.30;44.11;94168.69;5052841;28;20815;-69
2021/12/05 14:06:43;;;;;;;16.60;10.70;;;;;;;14.83;44.90;94181.41;5053347;28;20438;-69
2021/12/05 14:09:24;;;;;;;15.13;10.53;;;;;;;14.43;45.32;94187.59;5052725;28;20442;-66
2021/12/05 14:12:19;;;;;;;17.67;11.83;;;;;;;13.67;47.08;94184.81;5050839;28;21176;-69
2021/12/05 14:14:55;;;;;;;16.60;11.63;;;;;;;12.61;50.30;94194.41;5052670;28;20899;-67
2021/12/05 14:17:27;;;;;;;15.93;11.80;;;;;;;12.59;50.38;94180.75;5052704;28;20438;-68
2021/12/05 14:19:57;;;;;;;14.53;12.03;;;;;;;12.46;50.98;94189.38;5052503;28;20455;-70
2021/12/05 14:22:29;;;;;;;18.50;11.63;;;;;;;12.15;51.14;94160.06;5052738;28;20893;-68
2021/12/05 14:24:59;;;;;;;16.57;11.17;;;;;;;11.96;51.61;94159.28;5048843;28;20430;-69
2021/12/05 14:27:34;;;;;;;15.40;10.83;;;;;;;11.76;52.21;94150.84;5048680;28;20458;-67
2021/12/05 14:30:05;;;;;;;14.03;11.17;;;;;;;11.56;53.11;94182.53;5050586;28;20453;-67
2021/12/05 14:32:48;;;;;;;15.73;11.60;;;;;;;11.49;53.35;94177.63;5048975;28;20458;-68
2021/12/05 14:35:33;;;;;;;16.63;11.50;;;;;;;11.57;53.58;94189.38;5042388;28;21240;-69
2021/12/05 14:38:02;;;;;;;19.10;12.10;;;;;;;11.32;54.27;94194.81;5048545;28;20445;-67
2021/12/05 14:40:32;;;;;;;18.80;12.47;;;;;;;11.29;100.00;94193.56;5049660;28;20524;-67
2021/12/05 14:43:05;;;;;;;16.60;12.47;;;;;;;11.29;54.64;94193.56;5047916;28;20470;-68
2021/12/05 14:45:40;;;;;;;39.77;26.77;;;;;;;11.39;54.33;94187.41;5050663;28;20988;-68
2021/12/05 14:48:12;;;;;;;24.40;18.70;;;;;;;11.09;54.53;94189.25;5045180;28;20490;-68
2021/12/05 14:50:53;;;;;;;17.47;12.43;;;;;;;10.84;54.92;94180.81;5045150;28;20924;-67
2021/12/05 14:53:24;;;;;;;17.87;12.43;;;;;;;10.19;55.18;94108.72;5049809;28;21046;-67
2021/12/05 14:55:58;;;;;;;19.00;13.00;;;;;;;10.55;55.59;94175.50;5049704;28;20439;-67
2021/12/05 14:59:00;;;;;;;16.07;11.53;;;;;;;10.81;54.80;94199.69;5050787;28;20442;-69
2021/12/05 15:01:29;;;;;;;19.23;13.10;;;;;;;10.47;55.35;94204.91;5048831;28;20508;-67
2021/12/05 15:04:21;;;;;;;17.63;13.40;;;;;;;10.55;55.83;94217.44;5049500;28;20443;-67
2021/12/05 15:06:48;;;;;;;18.10;13.63;;;;;;;10.26;56.35;94206.06;5049462;28;20541;-69
2021/12/05 15:09:53;;;;;;;20.83;14.87;;;;;;;9.80;57.35;94202.03;4996126;28;20460;-69
2021/12/05 15:12:26;;;;;;;21.83;15.20;;;;;;;9.54;59.14;94222.25;5004800;28;20498;-68
2021/12/05 15:14:56;;;;;;;22.27;15.53;;;;;;;10.06;58.05;94216.59;5006657;28;20535;-69
2021/12/05 15:17:48;;;;;;;21.97;15.63;;;;;;;10.25;56.80;94219.44;5007455;28;20970;-76
2021/12/05 15:20:19;;;;;;;23.77;15.70;;;;;;;9.81;57.54;94214.88;5009802;28;20469;-79
2021/12/05 15:22:53;;;;;;;23.33;15.33;;;;;;;9.40;59.67;94217.84;5009510;28;20476;-77
2021/12/05 15:25:47;;;;;;;23.67;15.40;;;;;;;9.68;58.67;94225.09;5007279;28;20999;-79
2021/12/05 15:31:38;;;;;;;25.80;15.83;;;;;;;9.31;59.21;94201.88;5006700;28;20480;-64
2021/12/05 15:34:38;;;;;;;23.07;15.37;;;;;;;9.45;60.08;94209.97;4990656;28;20449;-67
2021/12/05 15:37:17;;;;;;;22.47;15.33;;;;;;;9.55;59.11;94226.44;4976360;28;20457;-68
2021/12/05 15:39:47;;;;;;;22.43;15.83;;;;;;;9.18;59.82;94221.50;5006440;28;20539;-67
2021/12/05 15:42:34;;;;;;;27.10;14.93;;;;;;;9.66;59.67;94214.09;5003667;28;20452;-69
2021/12/05 15:45:10;;;;;;;245.00;183.87;;;;;;;9.14;60.29;94204.78;5046080;28;20439;-68
2021/12/05 15:47:39;;;;;;;26.10;17.20;;;;;;;9.28;59.65;94228.56;5045798;28;20565;-65
2021/12/05 15:50:17;;;;;;;23.27;14.63;;;;;;;9.25;59.72;94231.72;5048111;28;20442;-67
2021/12/05 15:53:01;;;;;;;22.80;15.83;;;;;;;9.31;59.70;94235.06;5043377;28;20485;-70
2021/12/05 15:56:15;;;;;;;20.37;15.17;;;;;;;8.80;61.37;94240.31;5046435;28;20876;-64
2021/12/05 15:59:02;;;;;;;19.53;13.87;;;;;;;8.42;62.47;94247.81;5046057;28;20817;-64
2021/12/05 16:01:35;;;;;;;23.23;14.77;;;;;;;8.74;61.31;94249.19;5046641;28;20443;-65
2021/12/05 16:04:19;;;;;;;22.97;14.83;;;;;;;8.88;60.85;94237.19;5046905;28;20984;-65
2021/12/05 16:06:53;;;;;;;22.93;15.70;;;;;;;8.74;61.26;94251.78;5047503;28;20447;-65
2021/12/05 16:09:31;;;;;;;25.50;15.83;;;;;;;8.66;61.06;94249.69;5047190;28;20454;-66
2021/12/05 16:12:22;;;;;;;25.60;15.67;;;;;;;8.68;61.36;94268.50;5048313;28;20478;-64
2021/12/05 16:15:32;;;;;;;24.57;15.87;;;;;;;8.28;62.51;94273.63;5046277;28;20507;-66
2021/12/05 16:19:05;;;;;;;24.47;16.43;;;;;;;8.43;62.64;94271.03;5048459;28;20477;-63
2021/12/05 16:21:38;;;;;;;26.33;17.47;;;;;;;8.34;62.59;94271.81;5049735;28;20451;-67
2021/12/05 16:24:21;;;;;;;24.57;17.03;;;;;;;7.78;63.06;94221.19;5047992;28;20442;-66
2021/12/05 16:27:41;;;;;;;24.97;17.20;;;;;;;8.22;62.62;94274.59;5049839;28;20445;-64
2021/12/05 16:30:35;;;;;;;24.77;16.87;;;;;;;8.26;62.57;94286.13;5019891;28;20541;-75
2021/12/05 16:33:14;;;;;;;29.37;19.27;;;;;;;8.03;65.07;94276.06;5046949;28;20529;-65
2021/12/05 16:35:49;;;;;;;26.83;17.73;;;;;;;7.95;64.88;94266.13;5058215;28;20534;-66
2021/12/05 16:38:38;;;;;;;28.33;19.43;;;;;;;7.58;65.38;94281.03;5037285;28;21629;-62
2021/12/05 16:41:29;;;;;;;31.03;19.83;;;;;;;8.05;64.27;94269.56;5040732;28;20449;-63
2021/12/05 16:43:58;;;;;;;32.70;20.93;;;;;;;8.23;63.46;94278.78;5048876;28;20435;-59
2021/12/05 16:46:33;;;;;;;33.17;22.37;;;;;;;7.90;63.14;94253.09;5049803;28;20439;-63
2021/12/05 16:49:04;;;;;;;34.53;22.70;;;;;;;8.04;63.04;94288.88;5048985;28;20462;-66
2021/12/05 16:51:47;;;;;;;33.13;22.40;;;;;;;7.84;64.41;94270.53;5049039;28;21041;-63
2021/12/05 16:54:53;;;;;;;33.70;22.33;;;;;;;7.94;63.62;94261.94;5048943;28;20446;-64
2021/12/05 16:57:34;;;;;;;30.17;20.27;;;;;;;7.62;64.46;94261.25;5048409;28;20459;-66
2021/12/05 17:00:11;;;;;;;32.53;22.93;;;;;;;7.25;66.49;94273.50;5048814;28;20531;-63
2021/12/05 17:02:51;;;;;;;40.70;26.50;;;;;;;7.45;66.74;94284.09;5048280;28;20446;-61
2021/12/05 17:05:23;;;;;;;45.67;26.53;;;;;;;7.66;65.83;94291.81;5048660;28;20443;-65
2021/12/05 17:08:13;;;;;;;29.57;18.40;;;;;;;7.36;66.14;94282.97;5048583;28;21306;-64
2021/12/05 17:10:53;;;;;;;27.80;17.57;;;;;;;7.79;65.34;94293.19;5048488;28;20435;-63
2021/12/05 17:13:23;;;;;;;32.27;18.27;;;;;;;7.79;64.83;94280.16;5048139;28;21298;-64
2021/12/05 17:16:06;;;;;;;29.53;18.60;;;;;;;7.88;65.04;94273.41;5048640;28;20457;-63
2021/12/05 17:18:36;;;;;;;32.30;20.23;;;;;;;7.70;64.87;94295.47;5048574;28;20516;-71
2021/12/05 17:21:08;;;;;;;29.47;18.90;;;;;;;7.65;65.30;94307.69;5048110;28;20966;-71
2021/12/05 17:24:00;;;;;;;30.10;19.23;;;;;;;7.74;65.80;94306.97;5048008;28;20462;-67
2021/12/05 17:26:55;;;;;;;33.63;20.80;;;;;;;7.68;65.52;94299.38;5048180;28;20447;-70
2021/12/05 17:29:29;;;;;;;35.03;20.63;;;;;;;7.75;64.52;94294.72;5046608;28;20445;-69
2021/12/05 17:31:56;;;;;;;35.93;20.37;;;;;;;7.72;65.05;94305.66;5047604;28;20473;-69
2021/12/05 17:34:33;;;;;;;34.10;19.67;;;;;;;7.66;65.70;94285.81;5048784;28;20462;-70
2021/12/05 17:37:30;;;;;;;33.97;19.60;;;;;;;7.46;66.32;94257.00;5047452;28;20834;-68